EHSA

Euro Platform

Euro Platform, The Netherlands
METAR EHSA 180155Z AUTO 22015KT //// // ///////// 19/15 Q1020 RE// W19/H11
Observed Flight Rules
Aug-18 @ 01:55 UTC (32 minutes ago)
Wind
220° at 15 knots
Temperatures Readings
Current 19°C / 66°F
Dewpoint 15°C / 59°F
Humidity 78%
Altimeter 30.12" Hg
Pressure 1020 hPa
Elevation 50
METAR EHSA 180155Z AUTO 22015KT //// // ///////// 19/15 Q1020 RE// W19/H11
Observed Flight Rules
Aug-18 @ 01:55 UTC
(32 minutes ago)
Wind
220° at 15 knots
Temperature Dewpoint
19°C / 66°F 15°C / 59°F
Humidity Altimeter Pressure
78% 30.12" Hg 1020 hPa